Terminal Aerodrome Forecast
Issued by NWS

Home | Current Version | Previous Version | Text Only | Print | Product List | Glossary On
Versions: 1 2 3 4 5 6 7 8 9 10 11 12 13
000
FTUS45 KFGZ 010531
TAFPRC
TAF
KPRC 010531Z 0106/0206 VRB06KT P6SM SCT070 BKN100 BKN200
     FM011800 VRB06KT P6SM VCSH BKN070 BKN200
      TEMPO 0119/0123 VRB15G30KT 4SM TSRA OVC050CB=

USA.gov is the U.S. government's official web portal to all federal, state and local government web resources and services.